KSMO

Santa Monica Municipal Airport

Santa Monica, California, USA
METAR KSMO 201251Z AUTO VRB05KT 10SM CLR 11/M01 A2995 RMK AO2 SLP140 T01111006
Observed Flight Rules
Jan-20 @ 12:51 UTC (18 minutes ago) Visual Flight Rules
Wind Visibility Clouds
Variable at 5 knots 10 miles
  • Clear skies
Temperatures Readings
Current 11°C / 52°F
Dewpoint -1°C / 30°F
Humidity 44%
Altimeter 29.95" Hg
Pressure 1014 hPa
Elevation 57
METAR KSMO 201251Z AUTO VRB05KT 10SM CLR 11/M01 A2995 RMK AO2 SLP140 T01111006
Observed Flight Rules
Jan-20 @ 12:51 UTC
(18 minutes ago)
VFR
Wind Visibility
Variable at 5 knots 10 miles
Clouds
  • Clear skies
Temperature Dewpoint
11°C / 52°F -1°C / 30°F
Humidity Altimeter Pressure
44% 29.95" Hg 1014 hPa